createdAt,value
2023-05-10T00:00:26.848Z,12.30
2023-05-10T00:01:26.873Z,11.80
2023-05-10T00:02:26.884Z,12.60
2023-05-10T00:03:26.917Z,12.40
2023-05-10T00:04:26.796Z,12.20
2023-05-10T00:05:26.795Z,11.60
2023-05-10T00:06:26.788Z,11.60
2023-05-10T00:07:26.825Z,12.00
2023-05-10T00:08:26.768Z,12.10
2023-05-10T00:09:26.773Z,11.90
2023-05-10T00:10:26.762Z,11.90
2023-05-10T00:11:26.752Z,12.40
2023-05-10T00:12:26.717Z,12.30
2023-05-10T00:13:26.823Z,11.90
2023-05-10T00:14:26.709Z,12.00
2023-05-10T00:15:26.714Z,12.30
2023-05-10T00:16:26.717Z,12.00
2023-05-10T00:17:26.696Z,12.10
2023-05-10T00:18:26.649Z,12.00
2023-05-10T00:19:26.655Z,12.50
2023-05-10T00:20:26.631Z,12.60
2023-05-10T00:21:26.645Z,13.50
2023-05-10T00:22:26.628Z,12.90
2023-05-10T00:23:26.632Z,12.10
2023-05-10T00:24:26.592Z,12.50
2023-05-10T00:25:26.596Z,12.00
2023-05-10T00:26:26.657Z,12.20
2023-05-10T00:27:26.562Z,12.30
2023-05-10T00:28:26.566Z,12.50
2023-05-10T00:29:26.595Z,13.20
2023-05-10T00:30:26.551Z,12.80
2023-05-10T00:31:26.577Z,13.10
2023-05-10T00:32:26.639Z,13.00
2023-05-10T00:33:26.512Z,12.10
2023-05-10T00:34:26.493Z,12.30
2023-05-10T00:35:26.530Z,13.40
2023-05-10T00:36:26.503Z,12.80
2023-05-10T00:37:26.465Z,13.40
2023-05-10T00:38:26.454Z,13.10
2023-05-10T00:39:26.483Z,12.80
2023-05-10T00:40:26.435Z,13.00
2023-05-10T00:41:26.450Z,14.00
2023-05-10T00:42:26.410Z,13.00
2023-05-10T00:43:26.417Z,13.00
2023-05-10T00:44:26.416Z,13.20
2023-05-10T00:45:26.415Z,14.10
2023-05-10T00:46:26.425Z,13.30
2023-05-10T00:47:26.378Z,14.40
2023-05-10T00:48:26.420Z,13.80
2023-05-10T00:49:26.345Z,13.50
2023-05-10T00:50:26.334Z,14.00
2023-05-10T00:51:26.341Z,14.80
2023-05-10T00:52:26.327Z,14.50
2023-05-10T00:53:26.381Z,15.30
2023-05-10T00:54:26.342Z,14.50
2023-05-10T00:55:26.293Z,14.70
2023-05-10T00:56:27.282Z,13.30
2023-05-10T00:57:26.257Z,13.30
2023-05-10T00:58:26.275Z,13.90
2023-05-10T00:59:26.302Z,12.80
2023-05-10T01:00:26.236Z,12.70
2023-05-10T01:01:26.289Z,12.70
2023-05-10T01:02:26.367Z,12.80
2023-05-10T01:03:26.289Z,12.20
2023-05-10T01:04:26.301Z,12.00
2023-05-10T01:05:26.218Z,12.00
2023-05-10T01:06:26.192Z,12.00
2023-05-10T01:07:26.175Z,11.50
2023-05-10T01:08:26.195Z,10.80
2023-05-10T01:09:26.176Z,10.80
2023-05-10T01:10:26.137Z,10.50
2023-05-10T01:11:26.133Z,10.20
2023-05-10T01:12:26.176Z,10.30
2023-05-10T01:13:26.333Z,10.30
2023-05-10T01:14:26.107Z,10.30
2023-05-10T01:15:26.093Z,10.60
2023-05-10T01:16:26.133Z,10.10
2023-05-10T01:17:26.141Z,10.30
2023-05-10T01:18:26.081Z,10.20
2023-05-10T01:19:26.048Z,9.50
2023-05-10T01:20:26.055Z,10.10
2023-05-10T01:21:26.033Z,9.80
2023-05-10T01:22:26.052Z,9.50
2023-05-10T01:23:26.007Z,9.60
2023-05-10T01:24:25.989Z,9.80
2023-05-10T01:25:25.981Z,9.70
2023-05-10T01:26:25.984Z,8.60
2023-05-10T01:27:26.034Z,9.00
2023-05-10T01:28:25.962Z,9.30
2023-05-10T01:29:25.969Z,8.80
2023-05-10T01:30:26.114Z,7.80
2023-05-10T01:31:26.000Z,7.90
2023-05-10T01:32:26.019Z,7.40
2023-05-10T01:33:25.901Z,7.10
2023-05-10T01:34:25.894Z,7.30
2023-05-10T01:35:25.908Z,6.80
2023-05-10T01:36:25.932Z,6.80
2023-05-10T01:37:25.856Z,6.60
2023-05-10T01:38:25.856Z,6.30
2023-05-10T01:39:25.855Z,5.80
2023-05-10T01:40:25.831Z,5.60
2023-05-10T01:41:25.828Z,5.70
2023-05-10T01:42:25.811Z,5.70
2023-05-10T01:43:25.798Z,5.40
2023-05-10T01:44:25.815Z,5.50
2023-05-10T01:45:25.789Z,5.30
2023-05-10T01:46:25.807Z,5.00
2023-05-10T01:47:25.810Z,5.30
2023-05-10T01:48:25.746Z,5.40
2023-05-10T01:49:26.750Z,5.30
2023-05-10T01:50:25.756Z,4.80
2023-05-10T01:51:25.740Z,5.40
2023-05-10T01:52:25.717Z,5.10
2023-05-10T01:53:25.707Z,4.80
2023-05-10T01:54:25.693Z,4.90
2023-05-10T01:55:25.709Z,5.00
2023-05-10T01:56:25.669Z,4.70
2023-05-10T01:57:25.659Z,5.10
2023-05-10T01:58:25.650Z,4.60
2023-05-10T01:59:25.652Z,4.60
2023-05-10T02:00:25.668Z,4.70
2023-05-10T02:01:25.620Z,5.00
2023-05-10T02:02:25.654Z,4.70
2023-05-10T02:03:25.724Z,4.90
2023-05-10T02:04:25.638Z,4.70
2023-05-10T02:05:25.623Z,4.60
2023-05-10T02:06:25.573Z,4.80
2023-05-10T02:07:25.606Z,5.00
2023-05-10T02:08:25.556Z,5.00
2023-05-10T02:09:25.574Z,4.80
2023-05-10T02:10:25.542Z,4.80
2023-05-10T02:11:25.530Z,4.60
2023-05-10T02:12:25.534Z,4.80
2023-05-10T02:13:25.679Z,4.60
2023-05-10T02:14:25.533Z,4.80
2023-05-10T02:15:25.498Z,4.30
2023-05-10T02:16:25.507Z,5.20
2023-05-10T02:17:25.518Z,5.20
2023-05-10T02:18:25.478Z,4.90
2023-05-10T02:19:25.448Z,5.20
2023-05-10T02:20:25.447Z,5.10
2023-05-10T02:21:25.423Z,5.00
2023-05-10T02:22:25.408Z,5.30
2023-05-10T02:23:25.436Z,5.00
2023-05-10T02:24:25.392Z,5.00
2023-05-10T02:25:25.410Z,5.20
2023-05-10T02:26:25.385Z,5.10
2023-05-10T02:27:25.396Z,4.80
2023-05-10T02:28:25.373Z,5.30
2023-05-10T02:29:25.383Z,5.10
2023-05-10T02:30:25.399Z,5.10
2023-05-10T02:31:25.388Z,5.10
2023-05-10T02:32:25.372Z,4.80
2023-05-10T02:33:25.369Z,4.60
2023-05-10T02:34:25.286Z,4.80
2023-05-10T02:35:25.292Z,5.00
2023-05-10T02:36:25.278Z,4.90
2023-05-10T02:37:25.289Z,4.80
2023-05-10T02:38:25.270Z,5.60
2023-05-10T02:39:25.245Z,5.30
2023-05-10T02:40:26.857Z,5.20
2023-05-10T02:41:25.249Z,5.60
2023-05-10T02:42:25.247Z,6.00
2023-05-10T02:43:25.194Z,5.70
2023-05-10T02:44:25.193Z,5.90
2023-05-10T02:45:25.194Z,5.60
2023-05-10T02:46:25.262Z,6.10
2023-05-10T02:47:25.182Z,6.00
2023-05-10T02:48:25.155Z,6.00
2023-05-10T02:49:25.171Z,6.30
2023-05-10T02:50:25.125Z,5.70
2023-05-10T02:51:25.138Z,5.90
2023-05-10T02:52:25.114Z,5.70
2023-05-10T02:53:25.103Z,5.60
2023-05-10T02:54:25.101Z,6.20
2023-05-10T02:55:25.111Z,6.20
2023-05-10T02:56:25.081Z,6.20
2023-05-10T02:57:25.065Z,6.40
2023-05-10T02:58:25.073Z,6.60
2023-05-10T02:59:25.114Z,6.40
2023-05-10T03:00:25.050Z,6.20
2023-05-10T03:01:25.083Z,5.50
2023-05-10T03:02:25.044Z,5.90
2023-05-10T03:03:25.014Z,5.00
2023-05-10T03:04:25.014Z,2.50
2023-05-10T03:05:25.034Z,1.70
2023-05-10T03:06:24.967Z,1.20
2023-05-10T03:07:24.982Z,1.30
2023-05-10T03:08:24.956Z,1.30
2023-05-10T03:09:24.954Z,1.50
2023-05-10T03:10:24.935Z,1.40
2023-05-10T03:11:24.929Z,1.40
2023-05-10T03:12:24.919Z,1.50
2023-05-10T03:13:24.924Z,1.50
2023-05-10T03:14:24.929Z,1.40
2023-05-10T03:15:24.884Z,1.40
2023-05-10T03:16:24.907Z,1.50
2023-05-10T03:17:24.885Z,1.60
2023-05-10T03:18:24.871Z,1.80
2023-05-10T03:19:24.847Z,1.70
2023-05-10T03:20:24.877Z,1.70
2023-05-10T03:21:24.829Z,1.80
2023-05-10T03:22:24.809Z,1.60
2023-05-10T03:23:24.830Z,1.40
2023-05-10T03:24:24.818Z,1.60
2023-05-10T03:25:24.786Z,1.70
2023-05-10T03:26:24.773Z,2.30
2023-05-10T03:27:24.762Z,2.10
2023-05-10T03:28:24.775Z,2.40
2023-05-10T03:29:24.758Z,2.50
2023-05-10T03:30:24.740Z,2.50
2023-05-10T03:31:24.803Z,3.10
2023-05-10T03:32:24.758Z,3.00
2023-05-10T03:33:24.711Z,2.70
2023-05-10T03:34:24.722Z,2.90
2023-05-10T03:35:24.689Z,2.70
2023-05-10T03:36:24.665Z,2.90
2023-05-10T03:37:24.667Z,2.90
2023-05-10T03:38:58.519Z,2.80
2023-05-10T03:39:24.688Z,2.60
2023-05-10T03:40:24.650Z,2.70
2023-05-10T03:41:24.636Z,2.60
2023-05-10T03:42:24.647Z,2.90
2023-05-10T03:43:24.605Z,2.80
2023-05-10T03:44:24.589Z,2.40
2023-05-10T03:45:25.586Z,2.50
2023-05-10T03:46:24.643Z,2.00
2023-05-10T03:47:24.576Z,2.00
2023-05-10T03:48:24.570Z,1.90
2023-05-10T03:49:24.538Z,1.50
2023-05-10T03:50:24.541Z,1.70
2023-05-10T03:51:24.556Z,1.60
2023-05-10T03:52:24.524Z,1.80
2023-05-10T03:53:24.508Z,1.80
2023-05-10T03:54:24.505Z,1.80
2023-05-10T03:55:24.486Z,2.00
2023-05-10T03:56:24.484Z,1.80
2023-05-10T03:57:24.476Z,1.70
2023-05-10T03:58:24.450Z,1.70
2023-05-10T03:59:24.478Z,1.80
2023-05-10T04:00:24.475Z,1.90
2023-05-10T04:01:24.444Z,2.00
2023-05-10T04:02:24.479Z,2.30
2023-05-10T04:03:24.449Z,2.30
2023-05-10T04:04:24.399Z,2.40
2023-05-10T04:05:24.417Z,2.10
2023-05-10T04:06:24.394Z,2.20
2023-05-10T04:07:24.369Z,2.10
2023-05-10T04:08:24.359Z,2.20
2023-05-10T04:09:24.403Z,2.20
2023-05-10T04:10:24.366Z,2.20
2023-05-10T04:11:24.324Z,2.20
2023-05-10T04:12:24.352Z,2.30
2023-05-10T04:13:24.353Z,2.20
2023-05-10T04:14:24.315Z,2.30
2023-05-10T04:15:24.305Z,2.30
2023-05-10T04:16:24.305Z,2.20
2023-05-10T04:17:24.326Z,2.40
2023-05-10T04:18:24.262Z,2.30
2023-05-10T04:19:24.274Z,2.50
2023-05-10T04:20:24.267Z,2.20
2023-05-10T04:21:24.230Z,2.30
2023-05-10T04:22:24.222Z,2.30
2023-05-10T04:23:24.202Z,2.20
2023-05-10T04:24:24.209Z,2.30
2023-05-10T04:25:24.190Z,2.30
2023-05-10T04:26:24.176Z,2.40
2023-05-10T04:27:24.162Z,2.20
2023-05-10T04:28:24.278Z,2.00
2023-05-10T04:29:24.184Z,2.00
2023-05-10T04:30:24.143Z,2.20
2023-05-10T04:31:24.140Z,2.00
2023-05-10T04:32:24.152Z,2.20
2023-05-10T04:33:24.143Z,2.30
2023-05-10T04:34:24.100Z,2.50
2023-05-10T04:35:24.097Z,2.70
2023-05-10T04:36:24.079Z,2.10
2023-05-10T04:37:24.079Z,2.10
2023-05-10T04:38:24.083Z,2.10
2023-05-10T04:39:24.070Z,2.10
2023-05-10T04:40:24.063Z,2.00
2023-05-10T04:41:24.035Z,2.10
2023-05-10T04:42:24.044Z,2.10
2023-05-10T04:43:24.031Z,2.30
2023-05-10T04:44:24.015Z,2.40
2023-05-10T04:45:24.004Z,1.60
2023-05-10T04:46:24.020Z,1.50
2023-05-10T04:47:24.015Z,1.70
2023-05-10T04:48:23.971Z,1.70
2023-05-10T04:49:23.961Z,1.90
2023-05-10T04:50:23.981Z,1.70
2023-05-10T04:51:23.934Z,1.60
2023-05-10T04:52:23.943Z,1.60
2023-05-10T04:53:23.913Z,1.70
2023-05-10T04:54:23.906Z,1.80
2023-05-10T04:55:23.922Z,1.60
2023-05-10T04:56:23.921Z,1.60
2023-05-10T04:57:23.885Z,1.70
2023-05-10T04:58:23.864Z,1.20
2023-05-10T04:59:23.857Z,1.40
2023-05-10T05:00:23.858Z,1.40
2023-05-10T05:01:23.892Z,1.10
2023-05-10T05:02:23.866Z,1.30
2023-05-10T05:03:23.883Z,1.70
2023-05-10T05:04:23.804Z,1.60
2023-05-10T05:05:23.822Z,1.70
2023-05-10T05:06:23.805Z,1.80
2023-05-10T05:07:23.781Z,2.20
2023-05-10T05:08:23.764Z,1.90
2023-05-10T05:09:23.751Z,1.90
2023-05-10T05:10:23.777Z,1.60
2023-05-10T05:11:23.760Z,1.70
2023-05-10T05:12:23.723Z,1.70
2023-05-10T05:13:23.850Z,1.40
2023-05-10T05:14:23.718Z,1.60
2023-05-10T05:15:23.709Z,1.30
2023-05-10T05:16:23.709Z,1.60
2023-05-10T05:17:23.676Z,1.50
2023-05-10T05:18:23.661Z,1.40
2023-05-10T05:19:23.824Z,1.40
2023-05-10T05:20:23.675Z,1.40
2023-05-10T05:21:23.653Z,1.20
2023-05-10T05:22:23.639Z,1.40
2023-05-10T05:23:23.628Z,1.20
2023-05-10T05:24:23.633Z,1.30
2023-05-10T05:25:23.598Z,1.10
2023-05-10T05:26:23.666Z,1.30
2023-05-10T05:27:23.595Z,1.20
2023-05-10T05:28:23.566Z,1.30
2023-05-10T05:29:23.571Z,1.30
2023-05-10T05:30:23.544Z,1.20
2023-05-10T05:31:23.554Z,1.80
2023-05-10T05:32:23.533Z,1.30
2023-05-10T05:33:23.543Z,1.70
2023-05-10T05:34:23.540Z,1.20
2023-05-10T05:35:23.502Z,1.20
2023-05-10T05:36:23.492Z,1.00
2023-05-10T05:37:23.495Z,1.20
2023-05-10T05:38:23.495Z,1.30
2023-05-10T05:39:23.540Z,1.10
2023-05-10T05:40:23.449Z,1.20
2023-05-10T05:41:23.495Z,1.20
2023-05-10T05:42:23.437Z,1.10
2023-05-10T05:43:23.518Z,1.20
2023-05-10T05:44:23.458Z,1.10
2023-05-10T05:45:23.416Z,1.30
2023-05-10T05:46:23.423Z,1.20
2023-05-10T05:47:23.416Z,1.20
2023-05-10T05:48:23.387Z,1.20
2023-05-10T05:49:23.355Z,1.40
2023-05-10T05:50:23.370Z,1.20
2023-05-10T05:51:23.330Z,1.10
2023-05-10T05:52:23.388Z,1.00
2023-05-10T05:53:23.374Z,1.20
2023-05-10T05:54:23.286Z,1.10
2023-05-10T05:55:23.289Z,1.10
2023-05-10T05:56:23.280Z,1.10
2023-05-10T05:57:23.295Z,0.90
2023-05-10T05:58:23.259Z,1.20
2023-05-10T05:59:23.269Z,1.10
2023-05-10T06:00:23.243Z,1.20
2023-05-10T06:01:23.227Z,1.10
2023-05-10T06:02:23.294Z,1.00
2023-05-10T06:03:23.256Z,1.10
2023-05-10T06:04:23.375Z,1.20
2023-05-10T06:05:23.264Z,1.30
2023-05-10T06:06:23.239Z,1.30
2023-05-10T06:07:23.223Z,1.30
2023-05-10T06:08:23.152Z,1.20
2023-05-10T06:09:23.147Z,1.30
2023-05-10T06:10:23.140Z,1.20
2023-05-10T06:11:23.146Z,1.10
2023-05-10T06:12:23.113Z,1.30
2023-05-10T06:13:23.135Z,1.10
2023-05-10T06:14:23.092Z,1.10
2023-05-10T06:15:23.109Z,1.20
2023-05-10T06:16:23.130Z,1.10
2023-05-10T06:17:23.065Z,1.20
2023-05-10T06:18:23.070Z,1.10
2023-05-10T06:19:23.044Z,1.20
2023-05-10T06:20:23.063Z,1.10
2023-05-10T06:21:23.041Z,1.00
2023-05-10T06:22:23.013Z,1.10
2023-05-10T06:23:23.009Z,1.00
2023-05-10T06:24:22.995Z,1.00
2023-05-10T06:25:23.099Z,1.20
2023-05-10T06:26:22.982Z,1.30
2023-05-10T06:27:22.959Z,1.10
2023-05-10T06:28:22.955Z,1.10
2023-05-10T06:29:22.950Z,1.10
2023-05-10T06:30:22.958Z,1.20
2023-05-10T06:31:22.953Z,1.20
2023-05-10T06:32:22.924Z,1.20
2023-05-10T06:33:22.899Z,1.40
2023-05-10T06:34:22.904Z,1.40
2023-05-10T06:35:22.903Z,1.50
2023-05-10T06:36:22.862Z,1.70
2023-05-10T06:37:22.879Z,1.80
2023-05-10T06:38:22.860Z,1.70
2023-05-10T06:39:22.868Z,1.70
2023-05-10T06:40:22.833Z,1.70
2023-05-10T06:41:24.588Z,1.90
2023-05-10T06:42:22.808Z,1.80
2023-05-10T06:43:22.847Z,1.70
2023-05-10T06:44:22.809Z,1.70
2023-05-10T06:45:22.781Z,1.70
2023-05-10T06:46:22.762Z,1.80
2023-05-10T06:47:22.766Z,1.60
2023-05-10T06:48:22.821Z,1.70
2023-05-10T06:49:22.818Z,1.70
2023-05-10T06:50:22.735Z,1.70
2023-05-10T06:51:22.778Z,1.90
2023-05-10T06:52:22.725Z,1.80
2023-05-10T06:53:22.719Z,1.90
2023-05-10T06:54:22.714Z,2.10
2023-05-10T06:55:22.681Z,1.80
2023-05-10T06:56:22.747Z,1.90
2023-05-10T06:57:31.443Z,2.00
2023-05-10T06:58:24.658Z,1.80
2023-05-10T06:59:22.691Z,1.80
2023-05-10T07:00:22.669Z,1.80
2023-05-10T07:01:22.828Z,1.80
2023-05-10T07:02:22.771Z,1.80
2023-05-10T07:03:22.691Z,1.50
2023-05-10T07:04:22.612Z,1.50
2023-05-10T07:05:22.612Z,1.40
2023-05-10T07:06:33.043Z,1.50
2023-05-10T07:07:24.559Z,1.40
2023-05-10T07:08:22.552Z,1.60
2023-05-10T07:09:22.541Z,1.70
2023-05-10T07:10:22.522Z,1.50
2023-05-10T07:11:22.511Z,1.70
2023-05-10T07:12:22.538Z,1.50
2023-05-10T07:13:22.610Z,1.80
2023-05-10T07:14:22.484Z,1.60
2023-05-10T07:15:22.486Z,1.60
2023-05-10T07:16:22.510Z,1.50
2023-05-10T07:17:22.494Z,1.70
2023-05-10T07:18:22.512Z,2.00
2023-05-10T07:19:22.442Z,2.10
2023-05-10T07:20:22.430Z,1.80
2023-05-10T07:21:22.446Z,2.30
2023-05-10T07:22:22.418Z,1.70
2023-05-10T07:23:22.427Z,1.60
2023-05-10T07:24:22.384Z,1.50
2023-05-10T07:25:22.370Z,1.90
2023-05-10T07:26:22.371Z,2.00
2023-05-10T07:27:22.417Z,1.30
2023-05-10T07:28:22.459Z,1.40
2023-05-10T07:29:22.348Z,1.40
2023-05-10T07:30:22.358Z,1.40
2023-05-10T07:31:22.318Z,1.60
2023-05-10T07:32:22.416Z,1.50
2023-05-10T07:33:22.353Z,1.70
2023-05-10T07:34:22.292Z,1.70
2023-05-10T07:35:22.281Z,1.90
2023-05-10T07:36:22.299Z,1.70
2023-05-10T07:37:22.308Z,1.70
2023-05-10T07:38:22.281Z,1.20
2023-05-10T07:39:27.772Z,1.10
2023-05-10T07:40:24.257Z,1.20
2023-05-10T07:41:22.238Z,1.30
2023-05-10T07:42:22.198Z,1.10
2023-05-10T07:43:22.209Z,1.20
2023-05-10T07:44:22.240Z,1.50
2023-05-10T07:45:22.192Z,1.70
2023-05-10T07:46:22.363Z,1.70
2023-05-10T07:47:22.176Z,1.80
2023-05-10T07:48:22.175Z,1.40
2023-05-10T07:49:22.159Z,1.60
2023-05-10T07:50:22.148Z,1.60
2023-05-10T07:51:22.155Z,1.50
2023-05-10T07:52:22.883Z,1.50
2023-05-10T07:53:23.095Z,1.10
2023-05-10T07:54:22.104Z,1.30
2023-05-10T07:55:22.065Z,1.40
2023-05-10T07:56:22.053Z,1.60
2023-05-10T07:57:22.057Z,1.90
2023-05-10T07:58:22.051Z,1.70
2023-05-10T07:59:22.066Z,1.60
2023-05-10T08:00:22.089Z,1.70
2023-05-10T08:01:22.022Z,1.30
2023-05-10T08:02:22.043Z,1.60
2023-05-10T08:03:22.092Z,1.50
2023-05-10T08:04:22.105Z,1.70
2023-05-10T08:05:21.976Z,1.60
2023-05-10T08:06:21.957Z,1.70
2023-05-10T08:07:21.953Z,1.80
2023-05-10T08:08:21.967Z,1.70
2023-05-10T08:09:21.918Z,1.80
2023-05-10T08:10:22.038Z,1.60
2023-05-10T08:11:21.950Z,1.60
2023-05-10T08:12:21.922Z,1.90
2023-05-10T08:13:21.916Z,1.60
2023-05-10T08:14:21.885Z,1.50
2023-05-10T08:15:21.865Z,1.40
2023-05-10T08:16:21.873Z,1.60
2023-05-10T08:17:22.828Z,1.50
2023-05-10T08:18:22.253Z,1.40
2023-05-10T08:19:22.862Z,1.20
2023-05-10T08:20:21.971Z,1.50
2023-05-10T08:21:21.816Z,1.50
2023-05-10T08:22:21.821Z,1.30
2023-05-10T08:23:21.795Z,1.30
2023-05-10T08:24:21.830Z,1.50
2023-05-10T08:25:21.764Z,1.30
2023-05-10T08:26:21.769Z,1.30
2023-05-10T08:27:21.778Z,1.40
2023-05-10T08:28:21.745Z,1.30
2023-05-10T08:29:21.757Z,1.30
2023-05-10T08:30:21.753Z,1.40
2023-05-10T08:31:21.770Z,1.50
2023-05-10T08:32:21.712Z,1.50
2023-05-10T08:33:21.688Z,1.50
2023-05-10T08:34:21.821Z,1.40
2023-05-10T08:35:21.691Z,1.20
2023-05-10T08:36:21.686Z,1.40
2023-05-10T08:37:21.694Z,1.40
2023-05-10T08:38:21.629Z,1.70
2023-05-10T08:39:29.686Z,1.80
2023-05-10T08:40:23.623Z,2.00
2023-05-10T08:41:21.620Z,1.90
2023-05-10T08:42:21.611Z,1.70
2023-05-10T08:43:21.582Z,1.50
2023-05-10T08:44:21.606Z,1.70
2023-05-10T08:45:21.577Z,1.50
2023-05-10T08:46:21.629Z,1.20
2023-05-10T08:47:21.546Z,1.30
2023-05-10T08:48:21.544Z,1.20
2023-05-10T08:49:21.537Z,1.40
2023-05-10T08:50:21.561Z,1.20
2023-05-10T08:51:21.520Z,1.30
2023-05-10T08:52:21.508Z,1.20
2023-05-10T08:53:21.499Z,1.30
2023-05-10T08:54:21.484Z,1.40
2023-05-10T08:55:21.519Z,1.30
2023-05-10T08:56:22.459Z,1.50
2023-05-10T08:57:21.469Z,1.70
2023-05-10T08:58:21.455Z,1.50
2023-05-10T08:59:21.456Z,1.20
2023-05-10T09:00:21.445Z,1.50
2023-05-10T09:01:21.480Z,1.40
2023-05-10T09:02:21.399Z,1.70
2023-05-10T09:03:21.377Z,1.40
2023-05-10T09:04:21.471Z,1.60
2023-05-10T09:05:21.417Z,1.60
2023-05-10T09:06:21.379Z,1.40
2023-05-10T09:07:21.362Z,1.40
2023-05-10T09:08:21.381Z,1.50
2023-05-10T09:09:21.375Z,1.40
2023-05-10T09:10:21.317Z,1.50
2023-05-10T09:11:21.319Z,1.40
2023-05-10T09:12:21.349Z,1.50
2023-05-10T09:13:21.299Z,1.60
2023-05-10T09:14:21.303Z,1.60
2023-05-10T09:15:21.282Z,1.70
2023-05-10T09:16:22.431Z,1.70
2023-05-10T09:17:22.318Z,1.40
2023-05-10T09:18:21.365Z,1.70
2023-05-10T09:19:21.275Z,1.60
2023-05-10T09:20:21.263Z,1.90
2023-05-10T09:21:21.236Z,1.70
2023-05-10T09:22:21.193Z,1.70
2023-05-10T09:23:21.208Z,1.70
2023-05-10T09:24:21.180Z,1.70
2023-05-10T09:25:21.162Z,1.90
2023-05-10T09:26:21.167Z,1.80
2023-05-10T09:27:21.186Z,1.70
2023-05-10T09:28:21.158Z,2.00
2023-05-10T09:29:21.130Z,1.80
2023-05-10T09:30:21.142Z,1.60
2023-05-10T09:31:21.210Z,1.80
2023-05-10T09:32:21.102Z,2.10
2023-05-10T09:33:21.095Z,2.20
2023-05-10T09:34:21.082Z,1.90
2023-05-10T09:35:21.194Z,1.80
2023-05-10T09:36:21.080Z,1.80
2023-05-10T09:37:21.103Z,1.80
2023-05-10T09:38:21.052Z,2.10
2023-05-10T09:39:46.958Z,2.30
2023-05-10T09:40:21.025Z,2.20
2023-05-10T09:41:21.014Z,2.20
2023-05-10T09:42:21.003Z,2.20
2023-05-10T09:43:21.016Z,2.20
2023-05-10T09:44:20.969Z,2.10
2023-05-10T09:45:20.962Z,2.30
2023-05-10T09:46:21.024Z,2.30
2023-05-10T09:47:20.936Z,2.30
2023-05-10T09:48:20.937Z,2.30
2023-05-10T09:49:20.943Z,2.10
2023-05-10T09:50:20.981Z,2.30
2023-05-10T09:51:20.926Z,2.40
2023-05-10T09:52:20.888Z,2.30
2023-05-10T09:53:20.905Z,2.40
2023-05-10T09:54:20.898Z,2.10
2023-05-10T09:55:20.890Z,2.10
2023-05-10T09:56:20.863Z,2.30
2023-05-10T09:57:20.850Z,1.90
2023-05-10T09:58:20.842Z,2.30
2023-05-10T09:59:20.824Z,2.30
2023-05-10T10:00:20.851Z,2.80
2023-05-10T10:01:20.823Z,2.60
2023-05-10T10:02:20.818Z,2.30
2023-05-10T10:03:20.789Z,2.20
2023-05-10T10:04:20.808Z,2.40
2023-05-10T10:05:20.782Z,2.30
2023-05-10T10:06:29.434Z,2.30
2023-05-10T10:07:22.823Z,2.20
2023-05-10T10:08:20.736Z,2.20
2023-05-10T10:09:20.761Z,2.30
2023-05-10T10:10:20.730Z,2.30
2023-05-10T10:11:20.714Z,2.20
2023-05-10T10:12:20.696Z,2.50
2023-05-10T10:13:20.681Z,2.20
2023-05-10T10:14:20.692Z,2.50
2023-05-10T10:15:20.847Z,2.80
2023-05-10T10:16:20.720Z,2.70
2023-05-10T10:17:20.759Z,2.90
2023-05-10T10:18:20.696Z,3.20
2023-05-10T10:19:20.637Z,3.10
2023-05-10T10:20:20.867Z,3.10
2023-05-10T10:21:20.609Z,3.10
2023-05-10T10:22:20.597Z,3.00
2023-05-10T10:23:20.625Z,3.00
2023-05-10T10:24:20.635Z,3.00
2023-05-10T10:25:20.564Z,3.30
2023-05-10T10:26:20.559Z,3.20
2023-05-10T10:27:20.547Z,3.10
2023-05-10T10:28:20.589Z,3.20
2023-05-10T10:29:20.542Z,3.00
2023-05-10T10:30:20.519Z,3.30
2023-05-10T10:31:20.531Z,3.10
2023-05-10T10:32:20.555Z,3.30
2023-05-10T10:33:27.965Z,3.40
2023-05-10T10:34:22.485Z,3.50
2023-05-10T10:35:20.511Z,3.10
2023-05-10T10:36:20.458Z,3.30
2023-05-10T10:37:20.490Z,3.50
2023-05-10T10:38:20.458Z,3.10
2023-05-10T10:39:20.453Z,3.30
2023-05-10T10:40:20.437Z,3.20
2023-05-10T10:41:20.456Z,3.30
2023-05-10T10:42:20.462Z,3.10
2023-05-10T10:43:20.449Z,3.20
2023-05-10T10:44:20.451Z,3.30
2023-05-10T10:45:20.392Z,3.40
2023-05-10T10:46:20.366Z,3.20
2023-05-10T10:47:20.442Z,3.10
2023-05-10T10:48:20.405Z,3.10
2023-05-10T10:49:20.445Z,3.20
2023-05-10T10:50:20.411Z,3.20
2023-05-10T10:51:20.338Z,3.20
2023-05-10T10:52:20.333Z,3.20
2023-05-10T10:53:20.367Z,3.40
2023-05-10T10:54:20.296Z,3.20
2023-05-10T10:55:20.445Z,2.90
2023-05-10T10:56:20.263Z,2.80
2023-05-10T10:57:20.280Z,2.80
2023-05-10T10:58:20.243Z,2.90
2023-05-10T10:59:20.232Z,2.80
2023-05-10T11:00:20.254Z,3.10
2023-05-10T11:01:20.294Z,3.10
2023-05-10T11:02:20.209Z,3.00
2023-05-10T11:03:20.197Z,3.20
2023-05-10T11:04:20.214Z,3.40
2023-05-10T11:05:41.271Z,3.10
2023-05-10T11:06:20.164Z,3.00
2023-05-10T11:07:20.161Z,3.10
2023-05-10T11:08:20.154Z,3.00
2023-05-10T11:09:20.138Z,3.00
2023-05-10T11:10:20.159Z,3.10
2023-05-10T11:11:20.126Z,3.00
2023-05-10T11:12:20.092Z,3.00
2023-05-10T11:13:20.097Z,3.00
2023-05-10T11:14:20.101Z,3.10
2023-05-10T11:15:20.109Z,3.00
2023-05-10T11:16:20.141Z,3.00
2023-05-10T11:17:20.050Z,3.20
2023-05-10T11:18:20.090Z,3.30
2023-05-10T11:19:20.072Z,3.30
2023-05-10T11:20:20.336Z,3.20
2023-05-10T11:21:19.999Z,3.30
2023-05-10T11:22:21.007Z,3.30
2023-05-10T11:23:19.995Z,3.30
2023-05-10T11:24:19.997Z,3.00
2023-05-10T11:25:19.979Z,3.20
2023-05-10T11:26:19.972Z,3.50
2023-05-10T11:27:19.970Z,3.80
2023-05-10T11:28:19.957Z,3.30
2023-05-10T11:29:19.944Z,3.40
2023-05-10T11:30:20.151Z,3.20
2023-05-10T11:31:20.049Z,3.50
2023-05-10T11:32:19.908Z,3.70
2023-05-10T11:33:19.897Z,3.40
2023-05-10T11:34:19.881Z,3.80
2023-05-10T11:35:19.877Z,3.50
2023-05-10T11:36:19.890Z,3.50
2023-05-10T11:37:19.863Z,3.50
2023-05-10T11:38:19.846Z,3.40
2023-05-10T11:39:19.841Z,3.60
2023-05-10T11:40:19.995Z,3.50
2023-05-10T11:41:19.849Z,3.70
2023-05-10T11:42:19.809Z,3.50
2023-05-10T11:43:19.805Z,3.30
2023-05-10T11:44:19.789Z,3.60
2023-05-10T11:45:19.805Z,3.50
2023-05-10T11:46:19.811Z,3.70
2023-05-10T11:47:19.767Z,3.70
2023-05-10T11:48:19.754Z,3.80
2023-05-10T11:49:19.742Z,3.50
2023-05-10T11:50:19.978Z,3.30
2023-05-10T11:51:19.720Z,3.60
2023-05-10T11:52:19.811Z,3.30
2023-05-10T11:53:19.721Z,3.50
2023-05-10T11:54:19.688Z,3.60
2023-05-10T11:55:19.718Z,3.70
2023-05-10T11:56:19.674Z,3.70
2023-05-10T11:57:19.665Z,3.50
2023-05-10T11:58:19.644Z,3.90
2023-05-10T11:59:19.675Z,3.10
2023-05-10T12:00:20.011Z,3.90
2023-05-10T12:01:19.635Z,3.60
2023-05-10T12:02:19.668Z,3.60
2023-05-10T12:03:19.700Z,3.40
2023-05-10T12:04:19.722Z,3.40
2023-05-10T12:05:19.607Z,3.50
2023-05-10T12:06:19.623Z,3.60
2023-05-10T12:07:19.571Z,3.30
2023-05-10T12:08:19.547Z,3.50
2023-05-10T12:09:31.541Z,3.70
2023-05-10T12:10:21.577Z,3.40
2023-05-10T12:11:19.525Z,4.20
2023-05-10T12:12:20.514Z,4.30
2023-05-10T12:13:19.497Z,3.60
2023-05-10T12:14:19.485Z,3.80
2023-05-10T12:15:19.502Z,3.30
2023-05-10T12:16:19.515Z,2.90
2023-05-10T12:17:19.467Z,2.90
2023-05-10T12:18:19.533Z,3.10
2023-05-10T12:19:19.444Z,3.00
2023-05-10T12:20:19.696Z,3.00
2023-05-10T12:21:19.421Z,3.00
2023-05-10T12:22:19.417Z,3.50
2023-05-10T12:23:19.416Z,3.60
2023-05-10T12:24:19.413Z,3.40
2023-05-10T12:25:19.405Z,3.60
2023-05-10T12:26:19.384Z,3.80
2023-05-10T12:27:19.359Z,4.10
2023-05-10T12:28:19.355Z,3.80
2023-05-10T12:29:19.378Z,3.90
2023-05-10T12:30:19.338Z,3.60
2023-05-10T12:31:19.346Z,4.10
2023-05-10T12:32:19.327Z,4.30
2023-05-10T12:33:19.310Z,3.90
2023-05-10T12:34:19.310Z,3.70
2023-05-10T12:35:19.319Z,4.00
2023-05-10T12:36:19.293Z,3.90
2023-05-10T12:37:19.289Z,3.80
2023-05-10T12:38:19.278Z,4.00
2023-05-10T12:39:19.253Z,3.80
2023-05-10T12:40:19.413Z,3.80
2023-05-10T12:41:19.300Z,4.00
2023-05-10T12:42:19.256Z,4.40
2023-05-10T12:43:19.317Z,4.00
2023-05-10T12:44:19.205Z,4.20
2023-05-10T12:45:19.191Z,3.80
2023-05-10T12:46:19.213Z,4.10
2023-05-10T12:47:19.166Z,4.30
2023-05-10T12:48:19.181Z,4.60
2023-05-10T12:49:19.157Z,4.60
2023-05-10T12:50:19.250Z,4.40
2023-05-10T12:51:19.130Z,4.00
2023-05-10T12:52:19.137Z,4.20
2023-05-10T12:53:19.114Z,4.50
2023-05-10T12:54:19.100Z,4.30
2023-05-10T12:55:19.139Z,4.40
2023-05-10T12:56:19.181Z,4.20
2023-05-10T12:57:19.074Z,4.20
2023-05-10T12:58:34.300Z,4.00
2023-05-10T12:59:21.051Z,3.80
2023-05-10T13:00:19.165Z,4.20
2023-05-10T13:01:19.047Z,4.30
2023-05-10T13:02:19.049Z,4.10
2023-05-10T13:03:19.022Z,4.10
2023-05-10T13:04:19.046Z,4.00
2023-05-10T13:05:18.981Z,4.10
2023-05-10T13:06:20.012Z,4.10
2023-05-10T13:07:19.002Z,4.00
2023-05-10T13:08:18.971Z,4.00
2023-05-10T13:09:18.994Z,3.70
2023-05-10T13:10:19.184Z,4.00
2023-05-10T13:11:18.950Z,4.00
2023-05-10T13:12:18.919Z,3.80
2023-05-10T13:13:18.909Z,4.20
2023-05-10T13:14:18.904Z,4.10
2023-05-10T13:15:18.897Z,3.40